Terminal Aerodrome Forecast
Issued by NWS Boston, MA

Home | Current Version | Previous Version | Text Only | Print | Product List | Glossary On
Versions: 1 2 3 4 5 6 7 8 9 10 11 12 13 14 15 16 17 18 19 20 21
000
FTUS41 KBOX 281507 AAA
TAFBDL
TAF AMD
KBDL 281507Z 2815/2918 19006KT P6SM SCT070
     FM290700 VRB04KT P6SM SCT100
     FM291500 18004KT P6SM VCSH BKN035=

USA.gov is the U.S. government's official web portal to all federal, state and local government web resources and services.